Time;durP1;ratioP1;P1;durP2;ratioP2;P2;SDS_P1;SDS_P2;PMS_P1;PMS_P2;Temp;Humidity;BMP_temperature;BMP_pressure;BME280_temperature;BME280_humidity;BME280_pressure;Samples;Min_cycle;Max_cycle;Signal;HPM_P1;HPM_P2
2023/10/01 00:00:29;;;;;;;11.17;3.67;;;13.60;1.00;;;;;;6269209;22;20443;-67
2023/10/01 00:02:56;;;;;;;13.10;4.07;;;13.60;1.00;;;;;;6269628;22;20383;-67
2023/10/01 00:05:24;;;;;;;11.75;4.15;;;13.60;1.00;;;;;;6269716;22;20384;-67
2023/10/01 00:07:51;;;;;;;10.57;3.60;;;13.50;1.00;;;;;;6270040;22;20371;-67
2023/10/01 00:10:18;;;;;;;10.80;3.30;;;13.50;1.00;;;;;;6269746;22;20360;-67
2023/10/01 00:12:46;;;;;;;14.60;4.47;;;13.50;1.00;;;;;;6270198;22;20360;-67
2023/10/01 00:15:14;;;;;;;9.43;3.30;;;13.40;1.00;;;;;;6270887;22;20816;-67
2023/10/01 00:17:41;;;;;;;13.77;4.15;;;13.40;1.00;;;;;;6271093;22;20425;-68
2023/10/01 00:20:18;;;;;;;11.98;4.43;;;13.40;1.00;;;;;;6271031;22;20363;-67
2023/10/01 00:22:51;;;;;;;10.77;4.68;;;13.40;1.00;;;;;;6271385;22;20657;-67
2023/10/01 00:25:17;;;;;;;13.88;4.60;;;13.30;1.00;;;;;;6271014;22;20379;-67
2023/10/01 00:27:43;;;;;;;10.82;4.05;;;13.20;1.00;;;;;;6271017;22;20826;-67
2023/10/01 00:30:10;;;;;;;9.33;3.80;;;13.10;1.00;;;;;;6271002;22;20356;-67
2023/10/01 00:32:40;;;;;;;10.00;3.80;;;13.00;1.00;;;;;;6270745;22;20836;-67
2023/10/01 00:35:06;;;;;;;10.23;4.95;;;12.90;1.00;;;;;;6270691;22;20414;-67
2023/10/01 00:37:35;;;;;;;11.13;4.40;;;13.00;1.00;;;;;;6270647;22;20365;-67
2023/10/01 00:40:04;;;;;;;9.10;3.00;;;13.00;1.00;;;;;;6270384;22;20463;-68
2023/10/01 00:42:33;;;;;;;10.43;3.92;;;13.10;1.00;;;;;;6270750;22;20363;-67
2023/10/01 00:44:58;;;;;;;11.30;4.65;;;13.00;1.00;;;;;;6270449;22;20384;-67
2023/10/01 00:47:26;;;;;;;12.13;4.10;;;12.90;1.00;;;;;;6270457;22;20439;-67
2023/10/01 00:49:52;;;;;;;9.68;3.70;;;12.80;1.00;;;;;;6270127;22;20372;-67
2023/10/01 00:52:19;;;;;;;12.47;4.47;;;12.80;1.00;;;;;;6270348;22;20460;-67
2023/10/01 00:54:46;;;;;;;9.60;3.95;;;12.80;1.00;;;;;;6270793;22;20398;-67
2023/10/01 00:57:12;;;;;;;11.40;4.05;;;12.80;1.00;;;;;;6270465;22;20464;-67
2023/10/01 00:59:38;;;;;;;10.30;3.80;;;12.80;1.00;;;;;;6270568;22;20361;-67
2023/10/01 01:02:07;;;;;;;8.52;3.58;;;12.70;1.00;;;;;;6270722;22;20365;-67
2023/10/01 01:04:42;;;;;;;10.40;3.97;;;12.70;1.00;;;;;;6269625;22;21609;-67
2023/10/01 01:07:25;;;;;;;9.53;3.67;;;12.70;1.00;;;;;;6270753;22;20401;-67
2023/10/01 01:09:51;;;;;;;13.13;5.60;;;12.60;1.00;;;;;;6270273;22;20364;-67
2023/10/01 01:12:17;;;;;;;7.95;3.55;;;12.60;1.00;;;;;;6271331;22;20360;-68
2023/10/01 01:14:44;;;;;;;12.07;4.37;;;12.60;1.00;;;;;;6270918;22;20364;-68
2023/10/01 01:17:16;;;;;;;13.77;5.28;;;12.60;1.00;;;;;;6270213;22;20681;-67
2023/10/01 01:19:51;;;;;;;10.98;3.63;;;12.70;1.00;;;;;;6270318;22;20367;-67
2023/10/01 01:22:28;;;;;;;9.13;3.72;;;12.70;1.00;;;;;;6271082;22;20757;-67
2023/10/01 01:24:57;;;;;;;12.88;3.80;;;12.70;1.00;;;;;;6269419;22;20382;-67
2023/10/01 01:27:23;;;;;;;7.85;3.40;;;12.80;1.00;;;;;;6270122;22;20414;-67
2023/10/01 01:29:50;;;;;;;10.97;3.77;;;12.70;1.00;;;;;;6270187;22;20360;-67
2023/10/01 01:32:16;;;;;;;8.15;3.50;;;12.70;1.00;;;;;;6270867;22;20427;-67
2023/10/01 01:34:46;;;;;;;7.87;3.50;;;12.60;1.00;;;;;;6270574;22;20824;-67
2023/10/01 01:37:36;;;;;;;11.37;4.10;;;12.60;1.00;;;;;;6270444;22;20365;-67
2023/10/01 01:40:09;;;;;;;10.88;4.20;;;12.60;1.00;;;;;;6270502;22;20364;-67
2023/10/01 01:42:34;;;;;;;12.85;4.47;;;12.60;1.00;;;;;;6270976;22;20388;-67
2023/10/01 01:45:19;;;;;;;12.20;5.07;;;12.60;1.00;;;;;;6242647;22;20411;-67
2023/10/01 01:47:45;;;;;;;13.85;4.32;;;12.50;1.00;;;;;;6270360;22;20371;-67
2023/10/01 01:50:18;;;;;;;13.27;4.95;;;12.50;1.00;;;;;;6269610;22;20425;-67
2023/10/01 01:52:50;;;;;;;11.97;4.40;;;12.50;1.00;;;;;;6270360;22;20368;-68
2023/10/01 01:55:24;;;;;;;8.18;3.58;;;12.40;1.00;;;;;;6270591;22;20696;-67
2023/10/01 01:58:06;;;;;;;10.03;3.47;;;12.30;1.00;;;;;;6271128;22;20623;-67
2023/10/01 02:00:34;;;;;;;11.32;4.43;;;12.40;1.00;;;;;;6269502;22;20430;-68
2023/10/01 02:03:10;;;;;;;13.27;4.28;;;12.40;1.00;;;;;;6270204;22;20443;-67
2023/10/01 02:05:37;;;;;;;9.07;3.70;;;12.40;1.00;;;;;;6270200;22;20427;-67
2023/10/01 02:08:09;;;;;;;11.63;4.40;;;12.30;1.00;;;;;;6270129;22;20896;-67
2023/10/01 02:10:44;;;;;;;15.50;3.63;;;12.30;1.00;;;;;;6270136;22;20382;-67
2023/10/01 02:13:12;;;;;;;10.32;4.10;;;12.30;1.00;;;;;;6270370;22;20693;-66
2023/10/01 02:19:21;;;;;;;12.40;4.28;;;12.20;1.00;;;;;;6267598;22;20684;-68
2023/10/01 02:22:00;;;;;;;11.47;4.30;;;12.10;1.00;;;;;;6271078;22;20367;-67
2023/10/01 02:25:10;;;;;;;11.27;3.60;;;12.10;1.00;;;;;;6270274;22;20440;-68
2023/10/01 02:27:18;;;;;;;10.52;4.57;;;12.10;1.00;;;;;;6250880;22;20451;-68
2023/10/01 02:32:29;;;;;;;9.50;3.05;;;12.20;1.00;;;;;;6270071;22;20490;-67
2023/10/01 02:34:57;;;;;;;12.35;4.03;;;12.10;1.00;;;;;;6270266;22;20689;-67
2023/10/01 02:37:29;;;;;;;10.18;4.13;;;12.10;1.00;;;;;;6270480;22;20392;-67
2023/10/01 02:39:56;;;;;;;11.48;4.38;;;12.10;1.00;;;;;;6270581;22;20430;-67
2023/10/01 02:42:22;;;;;;;12.73;4.78;;;12.20;1.00;;;;;;6270669;22;20536;-67
2023/10/01 02:44:48;;;;;;;9.32;3.28;;;12.10;1.00;;;;;;6270635;22;20460;-67
2023/10/01 02:47:19;;;;;;;12.57;4.25;;;12.20;1.00;;;;;;6272416;22;20356;-66
2023/10/01 02:49:49;;;;;;;11.00;3.67;;;12.20;1.00;;;;;;6270980;22;20379;-66
2023/10/01 02:52:16;;;;;;;10.95;4.45;;;12.10;1.00;;;;;;6271520;22;20909;-67
2023/10/01 02:54:42;;;;;;;13.43;5.80;;;11.90;1.00;;;;;;6270202;22;20820;-67
2023/10/01 02:57:23;;;;;;;9.50;3.70;;;11.90;1.00;;;;;;6270081;22;21306;-67
2023/10/01 03:02:38;;;;;;;9.15;4.28;;;11.80;1.00;;;;;;6269602;22;20351;-67
2023/10/01 03:05:14;;;;;;;9.10;3.40;;;11.80;1.00;;;;;;6270229;22;20462;-67
2023/10/01 03:07:39;;;;;;;10.70;3.60;;;11.80;1.00;;;;;;6270239;22;20834;-67
2023/10/01 03:10:15;;;;;;;10.57;4.93;;;11.90;1.00;;;;;;6269405;22;20449;-67
2023/10/01 03:12:49;;;;;;;11.77;3.67;;;11.80;1.00;;;;;;6269964;22;20836;-67
2023/10/01 03:17:57;;;;;;;10.65;4.40;;;11.90;1.00;;;;;;6269868;22;20371;-67
2023/10/01 03:23:05;;;;;;;13.13;3.70;;;11.90;1.00;;;;;;6269773;22;20918;-67
2023/10/01 03:25:42;;;;;;;11.30;4.10;;;11.90;1.00;;;;;;6269374;22;20379;-67
2023/10/01 03:28:25;;;;;;;11.82;4.10;;;11.90;1.00;;;;;;6269993;22;20357;-67
2023/10/01 03:31:17;;;;;;;10.80;4.10;;;12.00;1.00;;;;;;6270261;22;20356;-67
2023/10/01 03:33:45;;;;;;;10.13;4.88;;;12.10;1.00;;;;;;6269552;22;20364;-67
2023/10/01 03:36:12;;;;;;;12.20;4.55;;;12.00;1.00;;;;;;6270176;22;20439;-67
2023/10/01 03:38:47;;;;;;;11.60;4.10;;;12.10;1.00;;;;;;6269538;22;20360;-67
2023/10/01 03:41:22;;;;;;;14.07;4.57;;;12.00;1.00;;;;;;6269770;22;20368;-68
2023/10/01 03:43:56;;;;;;;11.53;3.60;;;12.00;1.00;;;;;;6270208;22;20380;-67
2023/10/01 03:48:59;;;;;;;12.70;3.80;;;12.00;1.00;;;;;;6269791;22;20360;-67
2023/10/01 03:54:26;;;;;;;9.07;3.70;;;11.90;1.00;;;;;;6268898;22;20736;-67
2023/10/01 03:56:58;;;;;;;9.27;4.20;;;11.90;8.80;;;;;;6270366;22;20455;-67
2023/10/01 03:59:25;;;;;;;13.73;4.60;;;11.80;13.90;;;;;;6272324;22;20364;-68
2023/10/01 04:02:00;;;;;;;9.23;3.53;;;11.80;12.30;;;;;;6271889;22;20426;-67
2023/10/01 04:04:28;;;;;;;11.98;4.20;;;11.80;18.20;;;;;;6270108;22;20386;-66
2023/10/01 04:06:56;;;;;;;9.52;3.90;;;11.70;31.40;;;;;;6269132;22;20363;-67
2023/10/01 04:09:26;;;;;;;12.98;4.25;;;11.70;42.20;;;;;;6269786;22;20402;-67
2023/10/01 04:12:18;;;;;;;9.85;3.33;;;11.70;64.10;;;;;;6269499;22;20383;-67
2023/10/01 04:14:49;;;;;;;12.05;4.20;;;11.80;62.80;;;;;;6269124;22;20442;-67
2023/10/01 04:17:25;;;;;;;8.00;3.50;;;11.70;80.00;;;;;;6270508;22;20368;-67
2023/10/01 04:19:57;;;;;;;9.80;2.78;;;11.70;74.20;;;;;;6269130;22;20797;-67
2023/10/01 04:22:25;;;;;;;15.18;4.45;;;11.70;74.50;;;;;;6269180;22;20345;-67
2023/10/01 04:25:00;;;;;;;10.68;4.40;;;11.60;98.40;;;;;;6269134;22;20375;-67
2023/10/01 04:27:34;;;;;;;7.10;2.63;;;11.60;98.40;;;;;;6268968;22;20356;-67
2023/10/01 04:30:07;;;;;;;11.15;4.43;;;11.60;96.90;;;;;;6269141;22;20883;-67
2023/10/01 04:32:33;;;;;;;15.32;5.07;;;11.60;99.90;;;;;;6269374;22;20726;-68
2023/10/01 04:34:59;;;;;;;10.47;3.37;;;11.60;99.90;;;;;;6268763;22;20375;-68
2023/10/01 04:37:37;;;;;;;9.63;3.53;;;11.50;99.90;;;;;;6269307;22;20388;-67
2023/10/01 04:42:50;;;;;;;11.27;4.45;;;11.50;99.90;;;;;;6268648;22;20915;-67
2023/10/01 04:45:25;;;;;;;12.00;4.30;;;11.50;99.90;;;;;;6269051;22;20408;-67
2023/10/01 04:47:55;;;;;;;9.30;3.45;;;11.50;99.90;;;;;;6269074;22;20392;-68
2023/10/01 04:50:29;;;;;;;11.13;3.80;;;11.50;99.90;;;;;;6267910;22;20443;-68
2023/10/01 04:52:58;;;;;;;10.00;3.83;;;11.50;99.90;;;;;;6268924;22;20357;-67
2023/10/01 04:55:26;;;;;;;9.98;3.38;;;11.60;99.90;;;;;;6268841;22;20983;-67
2023/10/01 04:57:51;;;;;;;8.52;3.65;;;11.60;99.90;;;;;;6268681;22;20387;-67
2023/10/01 05:00:21;;;;;;;8.48;3.28;;;11.70;99.90;;;;;;6271467;22;20369;-66
2023/10/01 05:02:48;;;;;;;14.25;5.10;;;11.70;99.90;;;;;;6270904;22;20439;-66
2023/10/01 05:05:25;;;;;;;14.35;3.88;;;11.80;94.70;;;;;;6270534;22;20437;-67
2023/10/01 05:07:53;;;;;;;8.52;3.70;;;11.80;97.10;;;;;;6243267;22;20743;-67
2023/10/01 05:10:19;;;;;;;11.05;3.95;;;11.80;87.10;;;;;;6270838;22;20447;-67
2023/10/01 05:12:45;;;;;;;9.87;4.27;;;11.70;80.80;;;;;;6270893;22;20379;-67
2023/10/01 05:15:25;;;;;;;10.43;3.55;;;11.70;99.10;;;;;;6270356;22;20365;-67
2023/10/01 05:17:50;;;;;;;9.13;3.45;;;11.60;99.90;;;;;;6270221;22;20362;-67
2023/10/01 05:20:16;;;;;;;9.68;3.28;;;11.70;99.90;;;;;;6270924;22;20777;-67
2023/10/01 05:22:50;;;;;;;8.97;3.27;;;11.70;89.40;;;;;;6270788;22;20356;-67
2023/10/01 05:25:18;;;;;;;9.15;3.67;;;11.70;95.90;;;;;;6270556;22;20412;-67
2023/10/01 05:27:45;;;;;;;16.75;3.85;;;11.80;82.10;;;;;;6270656;22;20356;-67
2023/10/01 05:30:34;;;;;;;12.18;4.57;;;11.80;62.60;;;;;;6270639;22;20360;-67
2023/10/01 05:33:05;;;;;;;8.93;3.53;;;11.90;58.90;;;;;;6270051;22;20361;-68
2023/10/01 05:35:33;;;;;;;10.82;3.45;;;11.90;45.80;;;;;;6270568;22;20731;-67
2023/10/01 05:38:04;;;;;;;10.40;3.53;;;11.90;50.20;;;;;;6271152;22;20364;-67
2023/10/01 05:40:33;;;;;;;13.98;4.30;;;12.00;28.30;;;;;;6271015;22;20364;-67
2023/10/01 05:43:12;;;;;;;10.18;3.47;;;12.00;22.30;;;;;;6270613;22;20356;-67
2023/10/01 05:45:39;;;;;;;15.40;3.45;;;12.00;26.70;;;;;;6269728;22;20844;-67
2023/10/01 05:48:10;;;;;;;8.52;4.20;;;12.10;40.10;;;;;;6269913;22;20360;-67
2023/10/01 05:50:38;;;;;;;9.35;3.97;;;12.30;22.10;;;;;;6270628;22;20371;-67
2023/10/01 05:53:04;;;;;;;9.88;4.07;;;12.50;12.20;;;;;;6270502;22;20352;-67
2023/10/01 05:55:30;;;;;;;12.68;4.75;;;12.60;1.00;;;;;;6268892;22;20371;-67
2023/10/01 05:58:12;;;;;;;11.23;4.32;;;12.90;15.10;;;;;;6269270;22;20833;-67
2023/10/01 06:00:45;;;;;;;11.75;4.72;;;13.40;1.00;;;;;;6270517;22;20401;-68
2023/10/01 06:03:18;;;;;;;12.02;3.78;;;;;;;;;;6270205;22;20368;-68
2023/10/01 06:05:49;;;;;;;13.80;4.50;;;;;;;;;;6268407;22;20864;-67
2023/10/01 06:08:17;;;;;;;13.55;4.57;;;;;;;;;;6270618;22;20360;-68
2023/10/01 06:10:59;;;;;;;10.13;3.60;;;;;;;;;;6271497;22;20704;-68
2023/10/01 06:13:25;;;;;;;10.37;3.90;;;;;;;;;;6270821;22;20423;-68
2023/10/01 06:15:52;;;;;;;11.43;4.00;;;;;;;;;;6269665;22;20360;-68
2023/10/01 06:18:18;;;;;;;10.88;4.63;;;;;;;;;;6270743;22;20360;-68
2023/10/01 06:20:46;;;;;;;11.32;3.50;;;;;;;;;;6270588;22;20353;-68
2023/10/01 06:23:11;;;;;;;12.97;4.07;;;;;;;;;;6270281;22;20369;-68
2023/10/01 06:25:40;;;;;;;10.45;3.88;;;;;;;;;;6269434;22;20947;-68
2023/10/01 06:28:10;;;;;;;11.35;3.25;;;;;;;;;;6270419;22;20356;-67
2023/10/01 06:30:40;;;;;;;10.00;3.80;;;;;;;;;;6269604;22;20348;-68
2023/10/01 06:33:24;;;;;;;9.13;4.10;;;;;;;;;;6270101;22;20375;-68
2023/10/01 06:36:15;;;;;;;9.02;3.22;;;;;;;;;;6269420;22;20406;-68
2023/10/01 06:38:41;;;;;;;11.27;3.78;;;;;;;;;;6270166;22;20745;-67
2023/10/01 06:41:13;;;;;;;10.38;4.70;;;;;;;;;;6269912;22;20479;-68
2023/10/01 06:43:48;;;;;;;11.30;4.63;;;;;;;;;;6270392;22;20352;-68
2023/10/01 06:46:15;;;;;;;12.70;4.20;;;;;;;;;;6270598;22;20356;-68
2023/10/01 06:48:42;;;;;;;9.90;3.63;;;;;;;;;;6270085;22;20421;-68
2023/10/01 06:51:08;;;;;;;12.48;4.65;;;;;;;;;;6269857;22;20395;-68
2023/10/01 06:53:47;;;;;;;10.40;4.72;;;;;;;;;;6270125;22;20356;-68
2023/10/01 06:56:17;;;;;;;10.68;3.70;;;;;;;;;;6269260;22;20360;-67
2023/10/01 06:59:01;;;;;;;9.23;3.22;;;;;;;;;;6269942;22;20360;-67
2023/10/01 07:01:46;;;;;;;13.30;4.68;;;;;;;;;;6269498;22;20367;-67
2023/10/01 07:04:13;;;;;;;12.55;4.30;;;;;;;;;;6269074;22;20920;-68
2023/10/01 07:06:40;;;;;;;12.13;3.90;;;;;;;;;;6269611;22;20544;-68
2023/10/01 07:09:07;;;;;;;11.15;3.40;;;;;;;;;;6269949;22;20793;-68
2023/10/01 07:11:33;;;;;;;11.15;4.65;;;;;;;;;;6269913;22;20684;-68
2023/10/01 07:14:01;;;;;;;10.85;4.47;;;;;;;;;;6269235;22;20820;-68
2023/10/01 07:16:39;;;;;;;10.88;3.85;;;;;;;;;;6269650;22;20372;-67
2023/10/01 07:19:11;;;;;;;11.63;4.30;;;;;;;;;;6269653;22;20355;-67
2023/10/01 07:21:37;;;;;;;11.80;4.00;;;;;;;;;;6269598;22;20408;-67
2023/10/01 07:24:04;;;;;;;11.77;4.30;;;;;;;;;;6269128;22;20856;-68
2023/10/01 07:26:30;;;;;;;12.97;4.67;;;;;;;;;;6269304;22;20352;-67
2023/10/01 07:28:56;;;;;;;8.13;3.53;;;;;;;;;;6269141;22;20761;-68
2023/10/01 07:31:25;;;;;;;10.38;4.07;;;;;;;;;;6270136;22;20384;-68
2023/10/01 07:33:55;;;;;;;13.57;4.15;;;;;;;;;;6270039;22;20376;-68
2023/10/01 07:36:23;;;;;;;12.40;4.30;;;;;;;;;;6269843;22;20428;-67
2023/10/01 07:38:52;;;;;;;12.00;3.53;;;;;;;;;;6270385;22;20727;-67
2023/10/01 07:41:20;;;;;;;10.30;4.13;;;26.10;99.90;;;;;;6270089;22;20360;-68
2023/10/01 07:43:46;;;;;;;11.52;4.90;;;27.00;99.90;;;;;;6269850;22;20425;-68
2023/10/01 07:46:18;;;;;;;11.40;4.43;;;27.00;99.90;;;;;;6269402;22;20414;-68
2023/10/01 07:48:47;;;;;;;11.25;4.05;;;27.40;99.90;;;;;;6269701;22;20451;-68
2023/10/01 07:51:28;;;;;;;9.18;4.10;;;26.90;99.90;;;;;;6269683;22;20368;-68
2023/10/01 07:53:57;;;;;;;10.13;3.83;;;26.70;99.90;;;;;;6269914;22;20412;-68
2023/10/01 07:56:23;;;;;;;11.48;4.28;;;27.00;99.90;;;;;;6269206;22;20371;-68
2023/10/01 07:59:42;;;;;;;11.30;4.23;;;28.70;99.90;;;;;;6269745;22;20368;-69
2023/10/01 08:01:42;;;;;;;10.93;4.50;;;29.40;99.90;;;;;;6258038;22;20379;-69
2023/10/01 08:04:38;;;;;;;10.40;4.82;;;28.70;99.90;;;;;;6269485;22;20380;-68
2023/10/01 08:06:56;;;;;;;11.27;3.70;;;28.10;99.90;;;;;;6269240;22;20379;-68
2023/10/01 08:09:22;;;;;;;12.70;4.53;;;28.90;99.90;;;;;;6270180;22;20754;-69
2023/10/01 08:12:06;;;;;;;12.60;4.10;;;29.30;99.90;;;;;;6270591;22;20360;-69
2023/10/01 08:14:35;;;;;;;12.77;4.70;;;28.70;99.90;;;;;;6270343;22;20363;-69
2023/10/01 08:17:05;;;;;;;12.85;3.72;;;29.70;99.90;;;;;;6269294;22;20364;-69
2023/10/01 08:19:49;;;;;;;13.23;4.00;;;30.30;99.90;;;;;;6269508;22;20352;-69
2023/10/01 08:22:22;;;;;;;11.55;3.90;;;31.50;99.90;;;;;;6270507;22;20364;-69
2023/10/01 08:24:49;;;;;;;9.45;3.78;;;32.10;99.90;;;;;;6269128;22;20380;-68
2023/10/01 08:27:29;;;;;;;11.60;3.63;;;32.30;99.90;;;;;;6267274;22;20365;-68
2023/10/01 08:30:20;;;;;;;12.60;4.50;;;30.90;99.90;;;;;;6268819;22;20356;-68
2023/10/01 08:32:53;;;;;;;9.32;3.70;;;29.70;99.90;;;;;;6269142;22;20658;-70
2023/10/01 08:35:33;;;;;;;14.65;3.80;;;29.10;99.90;;;;;;6271315;22;20368;-70
2023/10/01 08:37:59;;;;;;;10.40;3.40;;;29.50;99.90;;;;;;6269924;22;20364;-70
2023/10/01 08:40:27;;;;;;;14.25;4.40;;;30.00;99.90;;;;;;6270381;22;20868;-70
2023/10/01 08:42:53;;;;;;;13.55;4.20;;;30.70;99.90;;;;;;6270276;22;20408;-71
2023/10/01 08:45:34;;;;;;;11.00;4.30;;;30.80;99.90;;;;;;6269694;22;20391;-70
2023/10/01 08:48:01;;;;;;;13.18;4.15;;;31.10;99.90;;;;;;6242511;22;20376;-69
2023/10/01 08:50:27;;;;;;;11.75;4.57;;;31.50;99.90;;;;;;6270575;22;20439;-69
2023/10/01 08:52:58;;;;;;;10.48;3.80;;;31.20;99.90;;;;;;6269716;22;20391;-69
2023/10/01 08:55:35;;;;;;;8.18;3.28;;;30.50;99.90;;;;;;6269318;22;20855;-69
2023/10/01 08:58:15;;;;;;;10.63;3.53;;;30.20;99.90;;;;;;6270443;22;20371;-69
2023/10/01 09:01:10;;;;;;;10.30;3.83;;;30.50;99.90;;;;;;6270759;22;20890;-69
2023/10/01 09:03:36;;;;;;;9.90;3.70;;;30.40;99.90;;;;;;6270244;22;21265;-69
2023/10/01 09:06:08;;;;;;;12.83;4.40;;;30.90;99.90;;;;;;6270057;22;20388;-68
2023/10/01 09:08:43;;;;;;;10.60;3.20;;;30.60;99.90;;;;;;6244167;22;20455;-68
2023/10/01 09:11:15;;;;;;;9.50;4.20;;;30.90;99.90;;;;;;6269830;22;20413;-68
2023/10/01 09:13:58;;;;;;;12.95;4.57;;;32.30;99.90;;;;;;6270432;22;20364;-68
2023/10/01 09:16:33;;;;;;;10.20;3.90;;;33.90;99.90;;;;;;6270103;22;20870;-69
2023/10/01 09:21:46;;;;;;;10.88;4.18;;;33.80;99.90;;;;;;6270372;22;20367;-67
2023/10/01 09:24:34;;;;;;;11.50;3.90;;;33.30;99.90;;;;;;6269897;22;20386;-68
2023/10/01 09:27:19;;;;;;;9.95;3.88;;;32.80;99.90;;;;;;6270198;22;20371;-67
2023/10/01 09:29:57;;;;;;;11.10;3.90;;;32.80;99.90;;;;;;6271108;22;20382;-68
2023/10/01 09:32:51;;;;;;;10.27;3.45;;;32.60;99.90;;;;;;6269187;22;20356;-68
2023/10/01 09:35:30;;;;;;;11.23;3.58;;;32.00;99.90;;;;;;6270477;22;20429;-68
2023/10/01 09:38:18;;;;;;;11.52;3.88;;;31.30;99.90;;;;;;6270309;22;20368;-68
2023/10/01 09:40:46;;;;;;;13.40;4.47;;;31.30;99.90;;;;;;6271106;22;20383;-68
2023/10/01 09:43:18;;;;;;;11.07;4.10;;;31.20;99.90;;;;;;6270662;22;20458;-68
2023/10/01 09:45:52;;;;;;;11.63;3.47;;;30.40;99.90;;;;;;6269398;22;20380;-68
2023/10/01 09:48:38;;;;;;;9.40;3.42;;;30.40;99.90;;;;;;6271488;22;20685;-68
2023/10/01 09:51:17;;;;;;;9.38;3.40;;;30.80;99.90;;;;;;6269592;22;20384;-70
2023/10/01 09:54:03;;;;;;;11.40;3.50;;;31.30;99.90;;;;;;6269141;22;20460;-69
2023/10/01 09:56:30;;;;;;;9.13;3.08;;;31.70;99.90;;;;;;6269896;22;20360;-69
2023/10/01 09:59:01;;;;;;;10.65;3.47;;;32.40;99.90;;;;;;6268148;22;20407;-70
2023/10/01 10:01:30;;;;;;;9.77;3.80;;;32.90;99.90;;;;;;6270076;22;20364;-70
2023/10/01 10:04:03;;;;;;;8.20;3.22;;;32.90;99.90;;;;;;6267843;22;20395;-69
2023/10/01 10:06:29;;;;;;;9.50;2.90;;;33.10;99.90;;;;;;6217937;22;20388;-70
2023/10/01 10:09:38;;;;;;;10.13;3.88;;;32.90;99.90;;;;;;6268172;22;20357;-70
2023/10/01 10:11:45;;;;;;;8.73;2.90;;;32.60;99.90;;;;;;6248076;22;20370;-70
2023/10/01 10:14:39;;;;;;;12.10;3.40;;;32.90;99.90;;;;;;6269135;22;20360;-70
2023/10/01 10:20:16;;;;;;;9.40;3.45;;;32.80;99.90;;;;;;6270604;22;20451;-70
2023/10/01 10:23:13;;;;;;;8.32;3.00;;;33.30;99.90;;;;;;6269331;22;20521;-71
2023/10/01 10:25:48;;;;;;;10.25;3.38;;;33.60;99.90;;;;;;6269596;22;20380;-71
2023/10/01 10:28:25;;;;;;;10.57;3.50;;;33.60;99.90;;;;;;6269861;22;20365;-71
2023/10/01 10:31:36;;;;;;;9.82;3.25;;;33.00;99.90;;;;;;6270145;22;20371;-70
2023/10/01 10:34:22;;;;;;;8.90;3.10;;;32.50;99.90;;;;;;6270582;22;20407;-71
2023/10/01 10:36:58;;;;;;;9.57;3.20;;;32.40;99.90;;;;;;6270592;22;20674;-71
2023/10/01 10:39:47;;;;;;;10.38;4.10;;;33.00;99.90;;;;;;6270503;22;20402;-71
2023/10/01 10:42:29;;;;;;;9.60;2.80;;;31.90;99.90;;;;;;6270469;22;20388;-70
2023/10/01 10:45:20;;;;;;;10.30;3.42;;;32.10;99.90;;;;;;6270624;22;20384;-71
2023/10/01 10:48:04;;;;;;;10.30;3.60;;;32.80;99.90;;;;;;6271029;22;20697;-71
2023/10/01 10:51:02;;;;;;;10.55;3.20;;;32.60;99.90;;;;;;6270512;22;20788;-71
2023/10/01 10:53:39;;;;;;;9.55;2.83;;;32.40;99.90;;;;;;6270303;22;20362;-71
2023/10/01 10:56:10;;;;;;;11.17;3.90;;;32.70;99.90;;;;;;6272055;22;20352;-70
2023/10/01 10:58:46;;;;;;;11.07;3.35;;;32.70;99.90;;;;;;6245587;22;20843;-70
2023/10/01 11:01:22;;;;;;;9.23;2.87;;;33.10;99.90;;;;;;6273400;22;20415;-70
2023/10/01 11:03:57;;;;;;;10.07;4.00;;;33.30;99.90;;;;;;6271175;22;20367;-69
2023/10/01 11:06:44;;;;;;;11.33;3.90;;;33.70;99.90;;;;;;6270560;22;20365;-69
2023/10/01 11:09:25;;;;;;;9.00;3.27;;;33.60;99.90;;;;;;6270455;22;20371;-70
2023/10/01 11:12:07;;;;;;;11.45;3.72;;;33.60;99.90;;;;;;6278092;22;20376;-69
2023/10/01 11:14:34;;;;;;;9.80;3.65;;;32.70;99.90;;;;;;6278718;22;20357;-69
2023/10/01 11:17:00;;;;;;;8.63;2.90;;;32.00;99.90;;;;;;6280999;22;20384;-68
2023/10/01 11:19:28;;;;;;;10.27;3.70;;;31.50;99.90;;;;;;6278154;22;20356;-69
2023/10/01 11:22:00;;;;;;;8.80;3.10;;;30.20;99.90;;;;;;6276217;22;20418;-69
2023/10/01 11:24:33;;;;;;;10.68;3.33;;;29.40;99.90;;;;;;6274662;22;20427;-69
2023/10/01 11:27:22;;;;;;;12.52;3.03;;;29.00;99.90;;;;;;6274491;22;20374;-69
2023/10/01 11:30:13;;;;;;;8.68;2.97;;;28.30;99.90;;;;;;6274512;22;20386;-69
2023/10/01 11:35:41;;;;;;;10.30;2.83;;;27.80;99.90;;;;;;6271662;22;20371;-68
2023/10/01 11:38:10;;;;;;;12.05;3.50;;;27.80;99.90;;;;;;6272064;22;20369;-69
2023/10/01 11:43:59;;;;;;;9.87;3.50;;;28.00;99.90;;;;;;6239328;22;20394;-69
2023/10/01 11:46:34;;;;;;;10.40;2.70;;;28.00;99.90;;;;;;6271503;22;20382;-69
2023/10/01 11:49:06;;;;;;;9.18;2.92;;;27.80;99.90;;;;;;6271762;22;20356;-69
2023/10/01 11:51:48;;;;;;;10.55;3.03;;;27.80;99.90;;;;;;6271655;22;20790;-70
2023/10/01 11:54:20;;;;;;;11.23;3.70;;;27.80;99.90;;;;;;6271032;22;20839;-68
2023/10/01 11:57:51;;;;;;;8.70;2.80;;;27.90;99.90;;;;;;6270711;22;20417;-69
2023/10/01 11:59:46;;;;;;;10.30;3.17;;;28.10;99.90;;;;;;6239754;22;20696;-69
2023/10/01 12:02:20;;;;;;;11.05;3.13;;;28.40;99.90;;;;;;6271624;22;20486;-69
2023/10/01 12:04:58;;;;;;;10.27;3.10;;;28.40;99.90;;;;;;6270422;22;20434;-69
2023/10/01 12:07:43;;;;;;;11.70;3.40;;;28.30;99.90;;;;;;6270932;22;20418;-69
2023/10/01 12:10:31;;;;;;;9.38;3.10;;;28.30;99.90;;;;;;6272143;22;20808;-70
2023/10/01 12:12:56;;;;;;;9.82;3.58;;;28.00;99.90;;;;;;6272739;22;20368;-69
2023/10/01 12:15:34;;;;;;;10.18;2.72;;;27.70;99.90;;;;;;6272550;22;20364;-69
2023/10/01 12:18:07;;;;;;;10.52;3.15;;;27.40;99.90;;;;;;6272148;22;20364;-69
2023/10/01 12:20:47;;;;;;;8.48;2.90;;;27.40;99.90;;;;;;6273110;22;20368;-69
2023/10/01 12:23:14;;;;;;;10.05;2.80;;;27.30;99.90;;;;;;6272872;22;20360;-69
2023/10/01 12:25:47;;;;;;;10.32;3.20;;;27.10;99.90;;;;;;6272216;22;20660;-68
2023/10/01 12:28:29;;;;;;;9.95;3.38;;;27.20;99.90;;;;;;6271912;22;20402;-69
2023/10/01 12:31:08;;;;;;;10.15;3.58;;;27.10;99.90;;;;;;6272364;22;20360;-69
2023/10/01 12:33:38;;;;;;;8.70;2.80;;;27.20;99.90;;;;;;6271744;22;20356;-69
2023/10/01 12:39:03;;;;;;;9.10;3.10;;;27.40;99.90;;;;;;6271367;22;20360;-68
2023/10/01 12:41:29;;;;;;;12.50;3.70;;;27.60;99.90;;;;;;6271740;22;20370;-68
2023/10/01 12:44:24;;;;;;;9.50;3.27;;;27.50;99.90;;;;;;6272015;22;20395;-69
2023/10/01 12:46:51;;;;;;;9.30;3.47;;;27.30;99.90;;;;;;6271992;22;20634;-69
2023/10/01 12:49:18;;;;;;;10.50;2.95;;;27.40;99.90;;;;;;6272015;22;20779;-69
2023/10/01 12:51:48;;;;;;;10.18;2.60;;;27.40;99.90;;;;;;6247702;22;20375;-69
2023/10/01 12:54:24;;;;;;;7.90;2.70;;;27.40;99.90;;;;;;6274759;22;20867;-68
2023/10/01 12:59:36;;;;;;;9.50;3.10;;;27.60;99.90;;;;;;6250205;22;20387;-70
2023/10/01 13:02:04;;;;;;;11.02;3.50;;;27.30;99.90;;;;;;6239957;22;20438;-70
2023/10/01 13:04:32;;;;;;;10.18;3.13;;;27.10;99.90;;;;;;6271035;22;20761;-69
2023/10/01 13:07:03;;;;;;;9.48;3.22;;;27.10;99.90;;;;;;6271209;22;20435;-69
2023/10/01 13:12:14;;;;;;;10.57;3.85;;;27.50;99.90;;;;;;6278718;22;20365;-70
2023/10/01 13:14:44;;;;;;;9.93;3.72;;;27.60;99.90;;;;;;6270953;22;20455;-70
2023/10/01 13:17:23;;;;;;;11.50;3.58;;;27.80;99.90;;;;;;6270546;22;21016;-70
2023/10/01 13:19:49;;;;;;;13.90;3.80;;;27.90;99.90;;;;;;6269671;22;20345;-70
2023/10/01 13:22:19;;;;;;;9.73;3.45;;;27.90;99.90;;;;;;6271670;22;20736;-70
2023/10/01 13:24:56;;;;;;;12.27;3.30;;;27.90;99.90;;;;;;6270954;22;20423;-70
2023/10/01 13:27:22;;;;;;;14.63;4.07;;;28.00;99.90;;;;;;6270844;22;20860;-70
2023/10/01 13:29:49;;;;;;;11.97;3.83;;;28.10;99.90;;;;;;6271660;22;20403;-70
2023/10/01 13:32:16;;;;;;;12.60;3.60;;;28.20;99.90;;;;;;6271819;22;20456;-70
2023/10/01 13:34:49;;;;;;;12.85;4.32;;;28.30;99.90;;;;;;6271218;22;20425;-70
2023/10/01 14:10:16;;;;;;;9.63;3.60;;;28.00;99.90;;;;;;6270668;22;20897;-70
2023/10/01 14:12:41;;;;;;;9.23;3.00;;;27.90;99.90;;;;;;6270696;22;20360;-70
2023/10/01 14:15:21;;;;;;;15.82;3.90;;;28.00;99.90;;;;;;6270225;22;20367;-70
2023/10/01 14:17:52;;;;;;;9.80;2.97;;;28.20;99.90;;;;;;6271232;22;20357;-70
2023/10/01 14:20:37;;;;;;;13.75;4.10;;;28.00;99.90;;;;;;6271857;22;20359;-70
2023/10/01 14:23:04;;;;;;;11.27;3.03;;;28.00;99.90;;;;;;6271281;22;20355;-70
2023/10/01 14:25:30;;;;;;;10.13;2.80;;;28.00;99.90;;;;;;6271036;22;20381;-70
2023/10/01 14:27:59;;;;;;;14.98;4.00;;;27.90;99.90;;;;;;6270673;22;20352;-70
2023/10/01 14:30:24;;;;;;;10.43;3.38;;;27.90;99.90;;;;;;6270668;22;20360;-70
2023/10/01 14:32:58;;;;;;;11.43;3.83;;;27.80;99.90;;;;;;6270616;22;20364;-70
2023/10/01 14:35:37;;;;;;;10.77;3.20;;;27.60;99.90;;;;;;6270691;22;20355;-70
2023/10/01 14:38:05;;;;;;;11.70;3.20;;;27.40;99.90;;;;;;6270735;22;20470;-70
2023/10/01 14:40:31;;;;;;;9.57;3.15;;;27.10;99.90;;;;;;6270791;22;20448;-70